Time;durP1;ratioP1;P1;durP2;ratioP2;P2;SDS_P1;SDS_P2;PMS_P1;PMS_P2;Temp;Humidity;BMP_temperature;BMP_pressure;BME280_temperature;BME280_humidity;BME280_pressure;Samples;Min_cycle;Max_cycle;Signal;HPM_P1;HPM_P2
2023/08/16 00:02:21;;;;;;;6.07;3.03;;;;;;;-145.69;nan;51678.03;5113645;28;20209;-83
2023/08/16 00:04:48;;;;;;;5.95;3.45;;;;;;;-145.69;nan;51668.16;5113077;28;20912;-82
2023/08/16 00:07:14;;;;;;;5.72;3.22;;;;;;;-145.69;nan;51687.94;5113485;28;20197;-82
2023/08/16 00:09:41;;;;;;;8.55;3.25;;;;;;;-145.69;nan;51680.03;5113181;28;20206;-81
2023/08/16 00:12:09;;;;;;;8.25;3.03;;;;;;;-145.69;nan;51678.03;5112807;28;20198;-81
2023/08/16 00:14:36;;;;;;;8.73;3.25;;;;;;;-145.69;nan;51693.88;5112622;28;20278;-81
2023/08/16 00:17:02;;;;;;;5.20;3.13;;;;;;;-145.69;nan;51715.66;5113094;28;20198;-82
2023/08/16 00:19:29;;;;;;;8.10;2.85;;;;;;;-145.69;nan;51672.09;5113331;28;20197;-82
2023/08/16 00:21:56;;;;;;;4.30;3.00;;;;;;;-145.69;nan;51703.78;5113061;28;20243;-80
2023/08/16 00:24:22;;;;;;;5.65;3.47;;;;;;;-145.69;nan;51689.94;5113030;28;20240;-81
2023/08/16 00:26:49;;;;;;;4.70;3.30;;;;;;;-145.69;nan;51697.84;5113001;28;20221;-81
2023/08/16 00:29:17;;;;;;;7.57;3.90;;;;;;;-145.69;nan;51687.94;5113192;28;20233;-81
2023/08/16 00:31:43;;;;;;;8.68;3.80;;;;;;;-145.69;nan;51721.59;5112655;28;20201;-81
2023/08/16 00:34:10;;;;;;;6.97;4.10;;;;;;;-145.69;nan;51678.03;5113215;28;20201;-82
2023/08/16 00:36:36;;;;;;;6.60;4.18;;;;;;;-145.69;nan;51711.72;5113730;28;20193;-82
2023/08/16 00:39:03;;;;;;;9.30;3.88;;;;;;;-145.69;nan;51707.75;5113059;28;20205;-83
2023/08/16 00:41:30;;;;;;;6.57;3.58;;;;;;;-145.69;nan;51687.94;5113480;28;20644;-82
2023/08/16 00:43:56;;;;;;;7.10;4.55;;;;;;;-145.69;nan;51721.59;5112460;28;20291;-82
2023/08/16 00:46:24;;;;;;;6.68;3.78;;;;;;;-145.69;nan;51695.88;5112906;28;20256;-82
2023/08/16 00:48:51;;;;;;;6.03;3.90;;;;;;;-145.69;nan;51699.81;5113542;28;20280;-82
2023/08/16 00:51:18;;;;;;;5.93;3.97;;;;;;;-145.69;nan;51685.97;5116254;28;20193;-82
2023/08/16 00:53:46;;;;;;;5.78;3.47;;;;;;;-145.69;nan;51705.75;5120241;28;20208;-82
2023/08/16 00:56:15;;;;;;;10.02;4.57;;;;;;;-145.69;nan;51703.78;5117158;28;20198;-83
2023/08/16 00:58:42;;;;;;;9.57;3.92;;;;;;;-145.69;nan;51715.66;5116820;28;20197;-82
2023/08/16 01:01:08;;;;;;;12.90;3.97;;;;;;;-145.69;nan;51731.50;5116777;28;20242;-81
2023/08/16 01:03:37;;;;;;;6.32;3.80;;;;;;;-145.69;nan;51727.53;5116761;28;20197;-82
2023/08/16 01:06:10;;;;;;;6.50;3.80;;;;;;;-145.69;nan;51703.78;5116195;28;20584;-81
2023/08/16 01:08:37;;;;;;;5.35;3.45;;;;;;;-145.69;nan;51703.78;5116817;27;20193;-81
2023/08/16 01:11:11;;;;;;;5.03;3.35;;;;;;;-145.69;nan;51725.56;5119933;27;20197;-82
2023/08/16 01:13:55;;;;;;;8.45;3.80;;;;;;;-145.69;nan;51715.66;5115952;28;20221;-82
2023/08/16 01:16:24;;;;;;;5.85;4.10;;;;;;;-145.69;nan;51739.44;5098328;28;20201;-82
2023/08/16 01:18:57;;;;;;;7.50;3.88;;;;;;;-145.69;nan;51723.59;5116244;28;20552;-81
2023/08/16 01:21:23;;;;;;;7.97;3.97;;;;;;;-145.69;nan;51709.72;5116420;28;20198;-82
2023/08/16 01:24:00;;;;;;;5.18;3.78;;;;;;;-145.69;nan;51715.66;5116250;28;20229;-82
2023/08/16 01:26:34;;;;;;;6.25;3.97;;;;;;;-145.69;nan;51713.69;5116459;28;20223;-81
2023/08/16 01:29:02;;;;;;;5.28;3.88;;;;;;;-145.69;nan;51731.50;5116411;28;20228;-81
2023/08/16 01:31:33;;;;;;;5.57;4.05;;;;;;;-145.69;nan;51747.34;5111300;28;20633;-81
2023/08/16 01:34:03;;;;;;;6.78;4.25;;;;;;;-145.69;nan;51711.72;5116460;28;20198;-81
2023/08/16 01:36:30;;;;;;;6.68;4.07;;;;;;;-145.69;nan;51731.50;5116260;28;20276;-81
2023/08/16 01:38:56;;;;;;;7.93;3.80;;;;;;;-145.69;nan;51757.25;5116030;28;20201;-81
2023/08/16 01:41:32;;;;;;;6.38;3.63;;;;;;;-145.69;nan;51707.75;5115161;28;20202;-81
2023/08/16 01:43:59;;;;;;;6.20;4.25;;;;;;;-145.69;nan;51745.38;5115893;28;20623;-81
2023/08/16 01:46:30;;;;;;;6.72;4.30;;;;;;;-145.69;nan;51747.34;5115832;28;20301;-81
2023/08/16 01:48:57;;;;;;;12.02;4.80;;;;;;;-145.69;nan;51731.50;5116575;28;20203;-82
2023/08/16 01:51:28;;;;;;;7.22;4.15;;;;;;;-145.69;nan;51773.09;5115204;28;20200;-81
2023/08/16 01:53:57;;;;;;;8.05;4.38;;;;;;;-145.69;nan;51751.31;5116049;28;20221;-81
2023/08/16 01:56:28;;;;;;;5.90;4.72;;;;;;;-145.69;nan;51755.25;5115939;28;20201;-81
2023/08/16 01:58:59;;;;;;;9.93;4.32;;;;;;;-145.69;nan;51705.75;5116871;28;20201;-82
2023/08/16 02:01:27;;;;;;;5.88;4.28;;;;;;;-145.69;nan;51727.53;5114782;28;20644;-81
2023/08/16 02:03:57;;;;;;;7.30;4.50;;;;;;;-145.69;nan;51739.44;5115877;28;20201;-81
2023/08/16 02:06:23;;;;;;;7.88;4.72;;;;;;;-145.69;nan;51751.31;5115291;28;20599;-81
2023/08/16 02:08:52;;;;;;;6.10;4.18;;;;;;;-145.69;nan;51749.31;5115796;28;20209;-82
2023/08/16 02:11:20;;;;;;;7.97;4.10;;;;;;;-145.69;nan;51713.69;5115055;28;20197;-81
2023/08/16 02:13:52;;;;;;;6.90;4.43;;;;;;;-145.69;nan;51761.22;5116223;28;20225;-81
2023/08/16 02:16:25;;;;;;;5.68;4.20;;;;;;;-145.69;nan;51775.06;5116732;28;20288;-82
2023/08/16 02:18:53;;;;;;;6.45;4.07;;;;;;;-145.69;nan;51743.38;5094904;28;20688;-81
2023/08/16 02:21:27;;;;;;;6.88;4.13;;;;;;;-145.69;nan;51751.31;5111930;28;20201;-81
2023/08/16 02:23:53;;;;;;;8.45;4.40;;;;;;;-145.69;nan;51775.06;5115167;28;20197;-82
2023/08/16 02:26:25;;;;;;;6.40;4.55;;;;;;;-145.69;nan;51759.22;5114939;28;20591;-82
2023/08/16 02:28:52;;;;;;;12.90;5.20;;;;;;;-145.69;nan;51769.13;5115333;28;20284;-82
2023/08/16 02:31:23;;;;;;;7.07;4.88;;;;;;;-145.69;nan;51737.44;5114930;28;20201;-82
2023/08/16 02:33:49;;;;;;;8.43;4.72;;;;;;;-145.69;nan;51751.31;5115020;28;20201;-81
2023/08/16 02:39:39;;;;;;;7.65;4.43;;;;;;;-145.69;nan;51784.97;5111384;28;20293;-82
2023/08/16 02:42:06;;;;;;;7.35;4.88;;;;;;;-145.69;nan;51761.22;5106337;28;20190;-81
2023/08/16 02:44:33;;;;;;;7.43;4.38;;;;;;;-145.69;nan;51800.81;5114711;28;20237;-81
2023/08/16 02:47:01;;;;;;;8.43;4.60;;;;;;;-145.69;nan;51755.25;5114160;28;20225;-81
2023/08/16 02:49:27;;;;;;;10.35;4.80;;;;;;;-145.69;nan;51769.13;5114674;28;20201;-81
2023/08/16 02:51:54;;;;;;;8.48;4.25;;;;;;;-145.69;nan;51771.09;5111942;28;20247;-81
2023/08/16 02:54:20;;;;;;;7.50;4.30;;;;;;;-145.69;nan;51775.06;5094227;28;20198;-81
2023/08/16 02:56:47;;;;;;;5.47;3.95;;;;;;;-145.69;nan;51777.03;5106748;28;20213;-82
2023/08/16 02:59:15;;;;;;;7.07;4.50;;;;;;;-145.69;nan;51771.09;5114506;28;20194;-82
2023/08/16 03:01:41;;;;;;;9.35;4.35;;;;;;;-145.69;nan;51763.19;5114336;28;20201;-81
2023/08/16 03:04:12;;;;;;;13.80;4.55;;;;;;;-145.69;nan;51771.09;5116545;27;20659;-81
2023/08/16 03:06:39;;;;;;;9.68;4.65;;;;;;;-145.69;nan;51790.91;5113901;28;20217;-81
2023/08/16 03:09:06;;;;;;;9.07;5.28;;;;;;;-145.69;nan;51763.19;5114212;28;20204;-81
2023/08/16 03:11:32;;;;;;;8.85;5.18;;;;;;;-145.69;nan;51779.03;5113950;28;20209;-82
2023/08/16 03:13:59;;;;;;;8.73;4.40;;;;;;;-145.69;nan;51753.28;5113277;28;20235;-81
2023/08/16 03:16:25;;;;;;;7.13;4.43;;;;;;;-145.69;nan;51775.06;5113113;28;20197;-81
2023/08/16 03:18:52;;;;;;;7.03;4.60;;;;;;;-145.69;nan;51749.31;5095556;28;20230;-81
2023/08/16 03:21:24;;;;;;;9.32;4.60;;;;;;;-145.69;nan;51773.09;5111651;28;20288;-81
2023/08/16 03:23:50;;;;;;;10.25;5.10;;;;;;;-145.69;nan;51767.16;5114065;28;20197;-81
2023/08/16 03:26:17;;;;;;;5.72;4.85;;;;;;;-145.69;nan;51784.97;5113600;28;20594;-82
2023/08/16 03:28:43;;;;;;;8.07;4.50;;;;;;;-145.69;nan;51769.13;5113894;28;20197;-82
2023/08/16 03:31:13;;;;;;;9.82;4.15;;;;;;;-145.69;nan;51769.13;5113612;28;20232;-82
2023/08/16 03:33:39;;;;;;;5.70;4.43;;;;;;;-145.69;nan;51794.88;5114000;28;20666;-82
2023/08/16 03:36:06;;;;;;;6.45;4.35;;;;;;;-145.69;nan;51796.84;5113652;28;20208;-81
2023/08/16 03:38:34;;;;;;;8.77;5.20;;;;;;;-145.69;nan;51745.38;5113765;28;20284;-82
2023/08/16 03:41:00;;;;;;;11.73;5.60;;;;;;;-145.69;nan;51783.00;5113307;28;20625;-81
2023/08/16 03:43:28;;;;;;;7.28;4.68;;;;;;;-145.69;nan;51781.00;5113351;28;20958;-81
2023/08/16 03:45:55;;;;;;;6.90;4.38;;;;;;;-145.69;nan;51784.97;5113616;28;20333;-81
2023/08/16 03:48:22;;;;;;;4.93;4.00;;;;;;;-145.69;nan;51826.56;5113542;28;20255;-81
2023/08/16 03:50:48;;;;;;;7.65;4.35;;;;;;;-145.69;nan;51783.00;5113347;28;20198;-81
2023/08/16 03:53:15;;;;;;;7.22;4.55;;;;;;;-145.69;nan;51775.06;5113296;28;20201;-81
2023/08/16 03:55:45;;;;;;;10.05;4.88;;;;;;;-145.69;nan;51798.81;5113578;28;20288;-80
2023/08/16 03:58:12;;;;;;;8.85;4.88;;;;;;;-145.69;nan;51792.88;5113468;28;20200;-80
2023/08/16 04:00:41;;;;;;;6.88;4.63;;;;;;;-145.69;nan;51759.22;5112795;28;20204;-80
2023/08/16 04:03:08;;;;;;;9.65;4.68;;;;;;;-145.69;nan;51806.75;5113226;28;20208;-80
2023/08/16 04:05:34;;;;;;;10.70;4.60;;;;;;;-145.69;nan;51810.72;5113304;28;20201;-80
2023/08/16 04:08:01;;;;;;;9.57;4.45;;;;;;;-145.69;nan;51806.75;5113228;28;20235;-80
2023/08/16 04:10:27;;;;;;;10.75;5.28;;;;;;;-145.69;nan;51788.94;5113423;28;20277;-81
2023/08/16 04:12:55;;;;;;;10.32;4.75;;;;;;;-145.69;nan;51792.88;5113210;28;20604;-81
2023/08/16 04:15:22;;;;;;;12.98;6.28;;;;;;;-145.69;nan;51826.56;5113648;28;20229;-81
2023/08/16 04:17:48;;;;;;;8.40;5.63;;;;;;;-145.69;nan;51786.94;5113217;28;20285;-82
2023/08/16 04:20:15;;;;;;;8.80;5.82;;;;;;;-145.69;nan;51794.88;5113145;28;20514;-82
2023/08/16 04:22:42;;;;;;;9.50;5.82;;;;;;;-145.69;nan;51759.22;5112861;28;20679;-81
2023/08/16 04:25:11;;;;;;;9.13;5.70;;;;;;;-145.69;nan;51759.22;5113157;28;20759;-81
2023/08/16 04:27:41;;;;;;;8.85;5.72;;;;;;;-145.69;nan;51775.06;5117137;28;20224;-83
2023/08/16 04:30:12;;;;;;;13.18;7.38;;;;;;;-145.69;nan;51783.00;5117165;28;20228;-83
2023/08/16 04:32:38;;;;;;;9.50;5.60;;;;;;;-145.69;nan;51775.06;5117271;28;20193;-82
2023/08/16 04:35:09;;;;;;;7.80;5.53;;;;;;;-145.69;nan;51757.25;5117667;28;20197;-80
2023/08/16 04:37:36;;;;;;;11.23;6.15;;;;;;;-145.69;nan;51777.03;5117340;28;20240;-80
2023/08/16 04:40:03;;;;;;;8.00;5.53;;;;;;;-145.69;nan;51788.94;5116825;28;20250;-81
2023/08/16 04:42:34;;;;;;;9.88;5.45;;;;;;;-145.69;nan;51771.09;5116913;28;20205;-82
2023/08/16 04:45:00;;;;;;;7.05;5.55;;;;;;;-145.69;nan;51759.22;5117106;28;20663;-80
2023/08/16 04:47:28;;;;;;;7.57;5.68;;;;;;;-145.69;nan;51747.34;5116697;28;20232;-80
2023/08/16 04:49:55;;;;;;;8.80;6.05;;;;;;;-145.69;nan;51779.03;5117221;28;20240;-81
2023/08/16 04:52:22;;;;;;;7.05;5.20;;;;;;;-145.69;nan;51759.22;5116912;28;20667;-80
2023/08/16 04:54:49;;;;;;;11.20;5.43;;;;;;;-145.69;nan;51741.41;5117117;28;20205;-80
2023/08/16 04:57:15;;;;;;;12.98;7.68;;;;;;;-145.69;nan;51761.22;5116748;28;20211;-80
2023/08/16 04:59:44;;;;;;;17.77;9.13;;;;;;;-145.69;nan;51757.25;5116482;28;20189;-80
2023/08/16 05:02:10;;;;;;;11.82;8.38;;;;;;;-145.69;nan;51767.16;5116570;28;20217;-80
2023/08/16 05:04:38;;;;;;;7.95;4.82;;;;;;;-145.69;nan;51771.09;5116462;28;20228;-79
2023/08/16 05:07:05;;;;;;;7.20;4.50;;;;;;;-145.69;nan;51751.31;5117276;27;20492;-79
2023/08/16 05:09:32;;;;;;;8.55;4.90;;;;;;;-145.69;nan;51755.25;5115362;27;20194;-80
2023/08/16 05:11:58;;;;;;;9.23;5.97;;;;;;;-145.69;nan;51759.22;5105595;28;20580;-80
2023/08/16 05:14:25;;;;;;;11.38;6.30;;;;;;;-145.69;nan;51759.22;5103960;28;20304;-81
2023/08/16 05:16:51;;;;;;;10.57;8.02;;;;;;;-145.69;nan;51749.31;5116319;28;20201;-81
2023/08/16 05:19:20;;;;;;;16.58;8.82;;;;;;;-145.69;nan;51753.28;5116370;28;20644;-81
2023/08/16 05:21:48;;;;;;;14.52;9.20;;;;;;;-145.69;nan;51749.31;5116611;28;20275;-81
2023/08/16 05:24:15;;;;;;;10.55;7.35;;;;;;;-145.69;nan;51757.25;5116034;28;20221;-81
2023/08/16 05:26:41;;;;;;;13.60;8.02;;;;;;;-145.69;nan;51755.25;5115825;28;20217;-81
2023/08/16 05:29:08;;;;;;;11.27;7.82;;;;;;;-145.69;nan;51749.31;5116581;28;20205;-81
2023/08/16 05:31:36;;;;;;;11.15;7.75;;;;;;;-145.69;nan;51771.09;5116121;28;20201;-80
2023/08/16 05:34:03;;;;;;;10.50;7.20;;;;;;;-145.69;nan;51753.28;5116191;28;20285;-81
2023/08/16 05:36:30;;;;;;;12.27;7.82;;;;;;;-145.69;nan;51755.25;5115320;28;20190;-78
2023/08/16 05:38:58;;;;;;;11.75;7.57;;;;;;;-145.69;nan;51775.06;5115813;28;20196;-81
2023/08/16 05:41:24;;;;;;;8.93;5.85;;;;;;;-145.69;nan;51769.13;5116307;28;20223;-81
2023/08/16 05:43:51;;;;;;;10.57;7.10;;;;;;;-145.69;nan;51783.00;5115886;28;20221;-81
2023/08/16 05:46:17;;;;;;;9.93;7.50;;;;;;;-145.69;nan;51775.06;5115332;28;20560;-80
2023/08/16 05:48:45;;;;;;;9.05;6.40;;;;;;;-145.69;nan;51743.38;5115794;28;20326;-80
2023/08/16 05:51:11;;;;;;;10.52;6.15;;;;;;;-145.69;nan;51737.44;5115834;28;20232;-80
2023/08/16 05:53:38;;;;;;;10.93;6.07;;;;;;;-145.69;nan;51723.59;5115799;28;20280;-82
2023/08/16 05:56:06;;;;;;;9.90;6.60;;;;;;;-145.69;nan;51739.44;5115248;28;20830;-83
2023/08/16 05:58:32;;;;;;;10.23;6.78;;;;;;;-145.69;nan;51747.34;5115480;28;20242;-81
2023/08/16 06:00:59;;;;;;;8.02;5.95;;;;;;;-145.69;nan;51729.53;5115667;28;20209;-81
2023/08/16 06:03:25;;;;;;;7.43;5.68;;;;;;;-145.69;nan;51747.34;5115581;28;20297;-81
2023/08/16 06:05:52;;;;;;;9.23;5.82;;;;;;;-145.69;nan;51763.19;5114885;28;20197;-80
2023/08/16 06:08:19;;;;;;;8.43;5.18;;;;;;;-145.69;nan;51721.59;5115325;28;20292;-81
2023/08/16 06:10:45;;;;;;;10.35;5.65;;;;;;;-145.69;nan;51747.34;5115420;28;20742;-81
2023/08/16 06:13:13;;;;;;;7.97;5.50;;;;;;;-145.69;nan;51741.41;5115229;28;20244;-80
2023/08/16 06:15:39;;;;;;;8.07;5.03;;;;;;;-145.69;nan;51763.19;5114722;28;20200;-81
2023/08/16 06:18:06;;;;;;;7.72;6.15;;;;;;;-145.69;nan;51753.28;5115158;28;20205;-81
2023/08/16 06:20:32;;;;;;;7.65;5.50;;;;;;;-145.69;nan;51737.44;5115132;28;20594;-81
2023/08/16 06:22:59;;;;;;;13.15;5.57;;;;;;;-145.69;nan;51711.72;5115147;28;20201;-81
2023/08/16 06:25:26;;;;;;;6.95;4.78;;;;;;;-145.69;nan;51733.50;5114626;28;20552;-81
2023/08/16 06:27:52;;;;;;;9.32;5.03;;;;;;;-145.69;nan;51739.44;5114844;28;20653;-82
2023/08/16 06:30:20;;;;;;;9.48;4.97;;;;;;;-145.69;nan;51735.47;5114679;28;20201;-82
2023/08/16 06:32:46;;;;;;;7.03;4.57;;;;;;;-145.69;nan;51767.16;5115011;28;20205;-81
2023/08/16 06:35:13;;;;;;;6.47;4.85;;;;;;;-145.69;nan;51731.50;5114878;28;20189;-81
2023/08/16 06:37:40;;;;;;;6.78;4.88;;;;;;;-145.69;nan;51747.34;5115004;28;20197;-83
2023/08/16 06:40:07;;;;;;;6.32;4.65;;;;;;;-145.69;nan;51723.59;5114918;28;20197;-81
2023/08/16 06:42:34;;;;;;;7.60;4.60;;;;;;;-145.69;nan;51747.34;5114952;28;20198;-79
2023/08/16 06:45:01;;;;;;;6.05;4.47;;;;;;;-145.69;nan;51727.53;5114711;28;20198;-81
2023/08/16 06:47:28;;;;;;;6.70;4.35;;;;;;;-145.69;nan;51711.72;5114663;28;20274;-81
2023/08/16 06:49:55;;;;;;;6.40;4.10;;;;;;;-145.69;nan;51709.72;5112718;28;20194;-82
2023/08/16 06:52:21;;;;;;;5.43;4.03;;;;;;;-145.69;nan;51723.59;5114542;28;20194;-81
2023/08/16 06:54:48;;;;;;;9.63;4.07;;;;;;;-145.69;nan;51721.59;5114164;28;20526;-79
2023/08/16 06:57:14;;;;;;;6.80;4.03;;;;;;;-145.69;nan;51745.38;5114328;28;20687;-81
2023/08/16 06:59:41;;;;;;;6.53;3.63;;;;;;;-145.69;nan;51707.75;5113744;28;20201;-81
2023/08/16 07:02:10;;;;;;;6.25;4.47;;;;;;;-145.69;nan;51695.88;5111999;28;20234;-80
2023/08/16 07:04:39;;;;;;;5.85;4.15;;;;;;;-145.69;nan;51703.78;5113727;28;20197;-81
2023/08/16 07:07:05;;;;;;;8.18;4.25;;;;;;;-145.69;nan;51703.78;5117730;27;20194;-82
2023/08/16 07:09:32;;;;;;;6.65;3.40;;;;;;;-145.69;nan;51713.69;5134062;27;20199;-81
2023/08/16 07:11:58;;;;;;;10.30;4.20;;;;;;;-145.69;nan;51701.81;5114635;27;20197;-81
2023/08/16 07:14:24;;;;;;;6.10;3.65;;;;;;;-145.69;nan;51701.81;5113571;28;20229;-82
2023/08/16 07:16:51;;;;;;;8.52;3.63;;;;;;;-145.69;nan;51683.97;5113689;28;20283;-81
2023/08/16 07:19:18;;;;;;;6.78;3.63;;;;;;;-145.69;nan;51719.63;5113186;28;20193;-82
2023/08/16 07:21:46;;;;;;;7.50;3.63;;;;;;;-145.69;nan;51687.94;5111876;28;20201;-81
2023/08/16 07:24:12;;;;;;;9.55;3.65;;;;;;;-145.69;nan;51703.78;5105523;28;20674;-81
2023/08/16 07:26:39;;;;;;;8.68;3.85;;;;;;;-145.69;nan;51707.75;5112964;28;20209;-82
2023/08/16 07:29:06;;;;;;;5.00;3.50;;;;;;;-145.69;nan;51699.81;5113739;28;20221;-81
2023/08/16 07:31:32;;;;;;;8.23;3.97;;;;;;;-145.69;nan;51697.84;5113507;28;20197;-81
2023/08/16 07:33:59;;;;;;;6.00;3.45;;;;;;;-145.69;nan;51691.91;5113686;28;20197;-82
2023/08/16 07:36:27;;;;;;;8.18;3.53;;;;;;;-145.69;nan;51711.72;5111785;28;20201;-81
2023/08/16 07:38:55;;;;;;;5.88;3.67;;;;;;;-145.69;nan;51682.00;5112914;28;20201;-82
2023/08/16 07:41:22;;;;;;;6.20;3.50;;;;;;;-145.69;nan;51660.22;5112898;28;20201;-82
2023/08/16 07:43:48;;;;;;;5.93;3.55;;;;;;;-145.69;nan;51670.13;5113648;28;20197;-80
2023/08/16 07:46:15;;;;;;;10.82;3.97;;;;;;;-145.69;nan;51656.25;5112326;28;20204;-82
2023/08/16 07:48:41;;;;;;;9.73;4.03;;;;;;;-145.69;nan;51662.22;5112164;28;20254;-82
2023/08/16 07:51:07;;;;;;;10.77;4.60;;;;;;;-145.69;nan;51678.03;5113419;28;20201;-82
2023/08/16 07:53:34;;;;;;;7.30;3.50;;;;;;;-145.69;nan;51658.25;5113129;28;20190;-83
2023/08/16 07:56:02;;;;;;;6.65;3.30;;;;;;;-145.69;nan;51632.50;5113580;28;20205;-81
2023/08/16 07:58:28;;;;;;;8.60;3.15;;;;;;;-145.69;nan;51614.69;5112727;28;20201;-82
2023/08/16 08:00:55;;;;;;;6.22;3.63;;;;;;;-145.69;nan;51640.44;5112917;28;20197;-83
2023/08/16 08:03:22;;;;;;;8.00;3.28;;;;;;;-145.69;nan;51656.25;5112108;28;20232;-82
2023/08/16 08:05:49;;;;;;;8.85;3.63;;;;;;;-145.69;nan;51650.31;5112359;28;20280;-81
2023/08/16 08:08:15;;;;;;;6.95;3.28;;;;;;;-145.69;nan;51654.28;5113348;28;20228;-83
2023/08/16 08:10:43;;;;;;;5.93;3.60;;;;;;;-145.69;nan;51652.31;5112017;28;20292;-84
2023/08/16 08:13:12;;;;;;;11.48;3.25;;;;;;;-145.69;nan;51634.47;5113471;28;20216;-82
2023/08/16 08:15:38;;;;;;;8.75;3.22;;;;;;;-145.69;nan;51626.56;5113298;28;20286;-82
2023/08/16 08:18:05;;;;;;;8.18;3.38;;;;;;;-145.69;nan;51640.44;5112973;28;20197;-83
2023/08/16 08:20:32;;;;;;;6.88;3.45;;;;;;;-145.69;nan;51628.53;5110512;28;20656;-81
2023/08/16 08:22:58;;;;;;;8.10;3.50;;;;;;;-145.69;nan;51638.44;5111225;28;20667;-82
2023/08/16 08:25:25;;;;;;;5.53;3.33;;;;;;;-145.69;nan;51644.38;5112895;28;20204;-83
2023/08/16 08:27:51;;;;;;;4.40;3.40;;;;;;;-145.69;nan;51648.34;5112847;28;20316;-82
2023/08/16 08:30:19;;;;;;;7.68;3.20;;;;;;;-145.69;nan;51628.53;5111270;28;20189;-82
2023/08/16 08:32:46;;;;;;;7.93;3.50;;;;;;;-145.69;nan;51624.59;5112154;28;20537;-81
2023/08/16 08:35:12;;;;;;;6.13;3.65;;;;;;;-145.69;nan;51624.59;5112388;28;20676;-80
2023/08/16 08:37:39;;;;;;;7.75;3.55;;;;;;;-145.69;nan;51626.56;5112508;28;20247;-81
2023/08/16 08:40:06;;;;;;;4.90;3.47;;;;;;;-145.69;nan;51650.31;5113037;28;20197;-81
2023/08/16 08:42:33;;;;;;;6.97;3.63;;;;;;;-145.69;nan;51632.50;5112928;28;20229;-81
2023/08/16 08:45:01;;;;;;;6.35;3.33;;;;;;;-145.69;nan;51628.53;5112595;28;20201;-81
2023/08/16 08:47:30;;;;;;;4.60;3.13;;;;;;;-145.69;nan;51626.56;5113315;28;20341;-81
2023/08/16 08:49:58;;;;;;;7.07;3.85;;;;;;;-145.69;nan;51632.50;5113366;28;20201;-82
2023/08/16 08:52:26;;;;;;;6.78;3.55;;;;;;;-145.69;nan;51632.50;5112958;28;20198;-81
2023/08/16 08:54:52;;;;;;;7.10;3.67;;;;;;;-145.69;nan;51648.34;5112359;28;20205;-81
2023/08/16 08:57:20;;;;;;;6.38;3.72;;;;;;;-145.69;nan;51610.72;5112458;28;20305;-81
2023/08/16 08:59:49;;;;;;;7.68;3.97;;;;;;;-145.69;nan;51640.44;5130331;28;20205;-81
2023/08/16 09:02:17;;;;;;;6.45;3.47;;;;;;;-145.69;nan;51644.38;5132178;28;20204;-81
2023/08/16 09:04:47;;;;;;;6.55;3.80;;;;;;;-145.69;nan;51612.72;5121544;28;20667;-81
2023/08/16 09:07:16;;;;;;;10.68;4.47;;;;;;;-145.69;nan;51640.44;5110752;28;20221;-82
2023/08/16 09:09:44;;;;;;;8.35;4.05;;;;;;;-145.69;nan;51628.53;5111298;28;20214;-82
2023/08/16 09:12:12;;;;;;;7.78;4.28;;;;;;;-145.69;nan;51636.47;5113995;28;20622;-82
2023/08/16 09:14:38;;;;;;;9.15;4.03;;;;;;;-145.69;nan;51636.47;5116295;28;20228;-80
2023/08/16 09:17:05;;;;;;;7.47;4.22;;;;;;;-145.69;nan;51628.53;5114736;28;20635;-82
2023/08/16 09:19:32;;;;;;;13.68;4.22;;;;;;;-145.69;nan;51636.47;5117018;28;20198;-83
2023/08/16 09:21:59;;;;;;;6.72;3.80;;;;;;;-145.69;nan;51636.47;5113111;28;20205;-82
2023/08/16 09:24:26;;;;;;;5.72;3.70;;;;;;;-145.69;nan;51636.47;5116309;28;20193;-81
2023/08/16 09:26:53;;;;;;;9.57;4.40;;;;;;;-145.69;nan;51624.59;5115935;28;20201;-81
2023/08/16 09:29:20;;;;;;;5.25;3.63;;;;;;;-145.69;nan;51632.50;5116110;28;20248;-81
2023/08/16 09:31:47;;;;;;;7.93;4.05;;;;;;;-145.69;nan;51632.50;5116139;28;20198;-81
2023/08/16 09:34:14;;;;;;;8.05;4.00;;;;;;;-145.69;nan;51612.72;5117914;28;20284;-82
2023/08/16 09:36:43;;;;;;;10.80;3.65;;;;;;;-145.69;nan;51636.47;5116897;28;20190;-82
2023/08/16 09:39:11;;;;;;;8.10;3.75;;;;;;;-145.69;nan;51630.53;5115545;28;20205;-80
2023/08/16 09:41:45;;;;;;;8.35;3.65;;;;;;;-145.69;nan;51620.63;5116004;28;20204;-80
2023/08/16 09:44:12;;;;;;;6.18;3.60;;;;;;;-145.69;nan;51640.44;5115892;28;20204;-81
2023/08/16 09:46:39;;;;;;;10.20;3.50;;;;;;;-145.69;nan;51612.72;5115782;28;20189;-81
2023/08/16 09:49:07;;;;;;;8.35;4.38;;;;;;;-145.69;nan;51624.59;5115685;28;20217;-81
2023/08/16 09:51:36;;;;;;;7.75;3.42;;;;;;;-145.69;nan;51644.38;5116876;28;20253;-82
2023/08/16 09:54:03;;;;;;;9.68;4.00;;;;;;;-145.69;nan;51610.72;5115318;28;20622;-82
2023/08/16 09:56:33;;;;;;;6.53;3.63;;;;;;;-145.69;nan;51620.63;5115310;28;20201;-80
2023/08/16 09:59:00;;;;;;;7.25;3.25;;;;;;;-145.69;nan;51624.59;5116107;28;20197;-82
2023/08/16 10:01:27;;;;;;;9.02;3.50;;;;;;;-145.69;nan;51620.63;5115284;28;20225;-81
2023/08/16 10:03:54;;;;;;;7.45;3.70;;;;;;;-145.69;nan;51618.66;5115213;28;20265;-82
2023/08/16 10:06:23;;;;;;;6.93;3.72;;;;;;;-145.69;nan;51612.72;5115442;28;20258;-82
2023/08/16 10:08:50;;;;;;;13.48;4.00;;;;;;;-145.69;nan;51602.81;5098044;28;20221;-82
2023/08/16 10:11:20;;;;;;;9.27;3.50;;;;;;;-145.69;nan;51614.69;5114770;28;20189;-81
2023/08/16 10:13:48;;;;;;;5.22;3.33;;;;;;;-145.69;nan;51600.81;5115005;28;20720;-81
2023/08/16 10:16:16;;;;;;;7.30;3.75;;;;;;;-145.69;nan;51608.75;5116599;28;20197;-82
2023/08/16 10:18:44;;;;;;;5.85;3.45;;;;;;;-145.69;nan;51596.88;5115727;28;20205;-82
2023/08/16 10:21:15;;;;;;;6.07;3.42;;;;;;;-145.69;nan;51610.72;5115284;28;20690;-81
2023/08/16 10:23:42;;;;;;;6.60;3.65;;;;;;;-145.69;nan;51624.59;5115825;28;20193;-82
2023/08/16 10:26:13;;;;;;;5.18;3.50;;;;;;;-145.69;nan;51612.72;5116831;28;20227;-81
2023/08/16 10:28:43;;;;;;;7.85;3.25;;;;;;;-145.69;nan;51620.63;5097455;28;20270;-82
2023/08/16 10:31:16;;;;;;;7.63;3.72;;;;;;;-145.69;nan;51600.81;5115794;28;20208;-81
2023/08/16 10:33:49;;;;;;;8.63;3.78;;;;;;;-145.69;nan;51620.63;5116454;28;20197;-82
2023/08/16 10:36:17;;;;;;;6.55;3.50;;;;;;;-145.69;nan;51602.81;5116283;28;20194;-82
2023/08/16 10:38:45;;;;;;;7.35;3.47;;;;;;;-145.69;nan;51592.91;5116746;28;20197;-81
2023/08/16 10:41:13;;;;;;;4.90;2.80;;;;;;;-145.69;nan;51586.97;5116358;28;20194;-82
2023/08/16 10:43:45;;;;;;;4.38;2.58;;;;;;;-145.69;nan;51604.78;5116523;28;20205;-83
2023/08/16 10:46:13;;;;;;;6.80;2.38;;;;;;;-145.69;nan;51600.81;5114193;28;20202;-84
2023/08/16 10:48:40;;;;;;;5.05;2.53;;;;;;;-145.69;nan;51592.91;5116494;28;20231;-83
2023/08/16 10:51:08;;;;;;;4.30;2.13;;;;;;;-145.69;nan;51583.00;5118567;28;20293;-82
2023/08/16 10:53:37;;;;;;;4.03;2.22;;;;;;;-145.69;nan;51584.97;5117192;28;20228;-83
2023/08/16 10:56:08;;;;;;;2.88;2.15;;;;;;;-145.69;nan;51577.06;5120013;28;20197;-83
2023/08/16 10:58:44;;;;;;;4.30;2.50;;;;;;;-145.69;nan;51579.03;5117883;28;20193;-83
2023/08/16 11:01:12;;;;;;;5.32;2.63;;;;;;;-145.69;nan;51588.94;5118162;28;20559;-82
2023/08/16 11:03:43;;;;;;;7.10;2.38;;;;;;;-145.69;nan;51565.19;5101193;28;20194;-82
2023/08/16 11:06:12;;;;;;;7.90;2.75;;;;;;;-145.69;nan;51596.88;5119543;27;20193;-83
2023/08/16 11:08:42;;;;;;;8.68;2.70;;;;;;;-145.69;nan;51535.50;5117394;28;20309;-83
2023/08/16 11:11:10;;;;;;;5.25;2.72;;;;;;;-145.69;nan;51571.13;5098087;28;20201;-84
2023/08/16 11:13:37;;;;;;;6.43;2.42;;;;;;;-145.69;nan;51596.88;5114163;28;20217;-84
2023/08/16 11:16:09;;;;;;;5.07;2.63;;;;;;;-145.69;nan;51584.97;5115806;28;20198;-83
2023/08/16 11:18:38;;;;;;;4.38;2.20;;;;;;;-145.69;nan;51561.22;5121633;28;20224;-84
2023/08/16 11:21:07;;;;;;;5.25;2.20;;;;;;;-145.69;nan;51575.09;5117824;28;20659;-84
2023/08/16 11:23:35;;;;;;;3.30;2.17;;;;;;;-145.69;nan;51565.19;5119319;28;20199;-84
2023/08/16 11:26:10;;;;;;;3.63;2.10;;;;;;;-145.69;nan;51557.25;5117441;28;20213;-83
2023/08/16 11:28:39;;;;;;;4.05;2.17;;;;;;;-145.69;nan;51565.19;5118225;28;20217;-84
2023/08/16 11:31:07;;;;;;;10.98;2.50;;;;;;;-145.69;nan;51567.16;5118535;28;20630;-83
2023/08/16 11:33:40;;;;;;;3.17;2.28;;;;;;;-145.69;nan;51573.09;5118984;28;20557;-84
2023/08/16 11:36:09;;;;;;;4.55;2.47;;;;;;;-145.69;nan;51565.19;5117952;28;20229;-83
2023/08/16 11:38:39;;;;;;;3.83;2.50;;;;;;;-145.69;nan;51553.31;5117544;28;20217;-82